Time;durP1;ratioP1;P1;durP2;ratioP2;P2;SDS_P1;SDS_P2;PMS_P1;PMS_P2;Temp;Humidity;BMP_temperature;BMP_pressure;BME280_temperature;BME280_humidity;BME280_pressure;Samples;Min_cycle;Max_cycle;Signal;HPM_P1;HPM_P2
2022/03/15 00:01:07;;;;;;;1.25;0.20;;;24.20;39.60;;;;;;5130223;27;20062;-48
2022/03/15 00:03:34;;;;;;;3.58;0.38;;;24.20;39.60;;;;;;5123591;27;20448;-49
2022/03/15 00:06:02;;;;;;;6.30;0.40;;;24.20;39.80;;;;;;5113527;27;20119;-48
2022/03/15 00:08:30;;;;;;;5.10;0.40;;;24.10;40.00;;;;;;5120224;27;20058;-50
2022/03/15 00:10:58;;;;;;;0.85;0.35;;;24.10;40.10;;;;;;5128897;27;20040;-47
2022/03/15 00:13:30;;;;;;;2.35;0.32;;;23.90;40.30;;;;;;5124688;27;20144;-48
2022/03/15 00:16:00;;;;;;;2.72;0.17;;;23.80;40.40;;;;;;5123330;27;20044;-47
2022/03/15 00:18:30;;;;;;;2.20;0.17;;;23.80;40.70;;;;;;5121860;27;20039;-47
2022/03/15 00:20:58;;;;;;;0.88;0.20;;;23.70;40.80;;;;;;5129341;27;20039;-49
2022/03/15 00:23:25;;;;;;;1.20;0.10;;;23.50;40.90;;;;;;5117098;27;20615;-47
2022/03/15 00:25:52;;;;;;;3.17;0.20;;;23.50;41.10;;;;;;5116616;27;20133;-47
2022/03/15 00:28:19;;;;;;;3.45;0.60;;;23.40;41.20;;;;;;5120729;27;20075;-46
2022/03/15 00:30:48;;;;;;;2.85;0.45;;;23.30;41.40;;;;;;5123299;27;20433;-48
2022/03/15 00:33:17;;;;;;;4.80;0.10;;;23.20;41.50;;;;;;5104074;27;20063;-47
2022/03/15 00:35:44;;;;;;;1.50;0.15;;;23.10;41.70;;;;;;5125546;27;20113;-47
2022/03/15 00:38:11;;;;;;;2.88;0.10;;;23.00;41.70;;;;;;5115150;27;20054;-48
2022/03/15 00:40:39;;;;;;;2.17;0.28;;;22.90;41.70;;;;;;5104572;27;20066;-47
2022/03/15 00:43:08;;;;;;;1.38;0.20;;;22.90;41.80;;;;;;5131005;27;20074;-47
2022/03/15 00:45:35;;;;;;;3.13;0.28;;;22.80;41.90;;;;;;5091115;27;20039;-49
2022/03/15 00:48:02;;;;;;;2.47;0.40;;;22.80;42.00;;;;;;5118075;27;20448;-49
2022/03/15 00:50:33;;;;;;;2.33;0.60;;;22.70;42.00;;;;;;5112505;27;20816;-48
2022/03/15 00:53:00;;;;;;;1.23;0.55;;;22.60;42.10;;;;;;5125619;27;20043;-50
2022/03/15 00:55:27;;;;;;;2.45;0.30;;;22.60;42.20;;;;;;5124264;27;20035;-52
2022/03/15 00:57:54;;;;;;;1.38;0.35;;;22.50;42.30;;;;;;5107541;27;20123;-52
2022/03/15 01:00:22;;;;;;;2.00;0.20;;;22.50;42.40;;;;;;5130203;27;20053;-47
2022/03/15 01:02:49;;;;;;;1.30;0.30;;;22.40;42.50;;;;;;5125091;27;20058;-47
2022/03/15 01:05:16;;;;;;;3.33;0.55;;;22.40;42.50;;;;;;5115570;27;20063;-49
2022/03/15 01:07:45;;;;;;;3.72;0.10;;;22.30;42.60;;;;;;5106519;27;20137;-48
2022/03/15 01:10:14;;;;;;;2.30;0.50;;;22.20;42.70;;;;;;5127791;27;20043;-48
2022/03/15 01:12:41;;;;;;;2.05;0.28;;;22.20;42.70;;;;;;5123571;27;20040;-48
2022/03/15 01:15:09;;;;;;;0.40;0.20;;;22.20;42.90;;;;;;5121102;27;20120;-47
2022/03/15 01:17:36;;;;;;;0.52;0.20;;;22.10;42.90;;;;;;5119399;27;20112;-49
2022/03/15 01:20:07;;;;;;;1.17;0.40;;;22.10;43.00;;;;;;5115384;27;20120;-47
2022/03/15 01:22:37;;;;;;;3.33;0.10;;;22.10;43.10;;;;;;5117927;27;20596;-47
2022/03/15 01:25:09;;;;;;;1.50;0.13;;;22.10;43.20;;;;;;5128678;27;20127;-50
2022/03/15 01:27:39;;;;;;;1.73;0.20;;;22.00;43.20;;;;;;5106859;27;20035;-46
2022/03/15 01:30:07;;;;;;;4.35;0.20;;;22.00;43.30;;;;;;5125501;27;20040;-49
2022/03/15 01:32:34;;;;;;;0.70;0.17;;;21.90;43.60;;;;;;5117681;27;20050;-50
2022/03/15 01:35:02;;;;;;;1.38;0.10;;;21.90;43.70;;;;;;5128967;27;20043;-48
2022/03/15 01:37:30;;;;;;;3.45;0.15;;;21.90;43.80;;;;;;5097318;27;20769;-47
2022/03/15 01:39:57;;;;;;;3.13;0.10;;;21.90;43.80;;;;;;5123517;27;20512;-49
2022/03/15 01:42:26;;;;;;;6.72;0.10;;;21.80;43.80;;;;;;5123103;27;20031;-48
2022/03/15 01:44:55;;;;;;;1.00;0.10;;;21.80;43.90;;;;;;5114951;27;20046;-50
2022/03/15 01:47:22;;;;;;;4.25;0.10;;;21.80;44.10;;;;;;5111753;27;20070;-51
2022/03/15 01:49:49;;;;;;;1.02;0.17;;;21.80;44.20;;;;;;5119638;27;20046;-50
2022/03/15 01:52:17;;;;;;;1.35;0.30;;;21.70;44.20;;;;;;5110214;27;20375;-51
2022/03/15 01:54:44;;;;;;;1.30;0.10;;;21.70;44.30;;;;;;5122442;27;20055;-52
2022/03/15 01:57:13;;;;;;;1.30;0.10;;;21.70;44.30;;;;;;5101632;27;20054;-50
2022/03/15 01:59:44;;;;;;;1.55;0.17;;;21.70;45.20;;;;;;5101535;27;20088;-50
2022/03/15 02:02:12;;;;;;;2.20;0.10;;;21.70;44.60;;;;;;5110056;27;20514;-50
2022/03/15 02:04:40;;;;;;;2.72;0.43;;;21.60;44.60;;;;;;5101567;27;20127;-52
2022/03/15 02:07:12;;;;;;;2.15;0.20;;;21.60;44.60;;;;;;5109523;27;20453;-50
2022/03/15 02:09:40;;;;;;;1.58;0.30;;;21.60;44.70;;;;;;5123195;27;20089;-53
2022/03/15 02:12:08;;;;;;;3.35;1.45;;;21.60;44.60;;;;;;5114891;27;20522;-49
2022/03/15 02:14:36;;;;;;;1.40;0.80;;;21.60;44.60;;;;;;5116647;27;20043;-50
2022/03/15 02:17:04;;;;;;;2.45;0.47;;;21.60;44.60;;;;;;5122023;27;20032;-48
2022/03/15 02:19:36;;;;;;;3.13;0.70;;;21.50;44.60;;;;;;5118768;27;20069;-49
2022/03/15 02:22:05;;;;;;;0.38;0.10;;;21.60;44.70;;;;;;5117779;27;20040;-49
2022/03/15 02:24:34;;;;;;;1.40;0.52;;;21.50;44.60;;;;;;5127371;27;20038;-47
2022/03/15 02:27:03;;;;;;;0.75;0.30;;;21.50;44.60;;;;;;5122445;27;20490;-48
2022/03/15 02:29:30;;;;;;;1.30;0.10;;;21.50;44.60;;;;;;5111641;27;20039;-49
2022/03/15 02:31:57;;;;;;;1.13;0.20;;;21.50;44.60;;;;;;5116293;27;20039;-49
2022/03/15 02:34:26;;;;;;;0.47;0.20;;;21.50;44.60;;;;;;5131673;27;20063;-49
2022/03/15 02:36:53;;;;;;;5.72;0.20;;;21.50;44.60;;;;;;5121127;27;20047;-49
2022/03/15 02:39:22;;;;;;;2.10;0.20;;;21.50;44.60;;;;;;5119307;27;20053;-48
2022/03/15 02:41:49;;;;;;;1.17;0.10;;;21.40;44.50;;;;;;5079801;27;20402;-51
2022/03/15 02:44:16;;;;;;;0.38;0.17;;;21.40;44.50;;;;;;5123829;27;20040;-49
2022/03/15 02:46:43;;;;;;;0.88;0.30;;;21.40;44.60;;;;;;5120268;27;20565;-48
2022/03/15 02:49:10;;;;;;;1.27;0.10;;;21.40;44.70;;;;;;5122329;27;20046;-49
2022/03/15 02:51:38;;;;;;;1.38;0.10;;;21.40;44.70;;;;;;5122645;27;20039;-48
2022/03/15 02:54:08;;;;;;;0.13;0.10;;;21.40;44.70;;;;;;5122688;27;20737;-47
2022/03/15 02:56:42;;;;;;;0.20;0.10;;;21.40;44.80;;;;;;5108453;27;20054;-49
2022/03/15 02:59:09;;;;;;;1.70;0.38;;;21.40;44.80;;;;;;5102068;27;20039;-49
2022/03/15 03:01:36;;;;;;;0.68;0.20;;;21.40;44.80;;;;;;5117258;27;20039;-49
2022/03/15 03:04:03;;;;;;;0.30;0.25;;;21.30;44.70;;;;;;5118086;27;20036;-48
2022/03/15 03:06:30;;;;;;;0.60;0.10;;;21.30;44.60;;;;;;5124803;27;20053;-47
2022/03/15 03:08:57;;;;;;;1.00;0.85;;;21.30;44.60;;;;;;5119211;27;20035;-47
2022/03/15 03:11:25;;;;;;;1.27;0.20;;;21.30;44.60;;;;;;5110753;27;20114;-48
2022/03/15 03:13:57;;;;;;;0.20;0.10;;;21.30;44.60;;;;;;5115733;27;20512;-47
2022/03/15 03:16:26;;;;;;;1.98;0.25;;;21.30;44.70;;;;;;5125846;27;20051;-50
2022/03/15 03:18:57;;;;;;;1.85;0.10;;;21.30;44.70;;;;;;5119874;27;20051;-48
2022/03/15 03:21:25;;;;;;;1.30;0.20;;;21.30;44.70;;;;;;5121371;27;20062;-49
2022/03/15 03:23:53;;;;;;;1.17;0.20;;;21.20;44.70;;;;;;5113563;27;20054;-49
2022/03/15 03:26:23;;;;;;;1.10;0.30;;;21.30;44.80;;;;;;5122219;27;20050;-50
2022/03/15 03:28:50;;;;;;;0.10;0.10;;;21.30;44.90;;;;;;5118716;27;20077;-48
2022/03/15 03:31:21;;;;;;;0.82;0.10;;;21.20;44.90;;;;;;5121157;27;20055;-47
2022/03/15 03:33:48;;;;;;;1.85;0.20;;;21.30;45.00;;;;;;5127764;27;20395;-48
2022/03/15 03:36:16;;;;;;;1.38;0.10;;;21.20;45.50;;;;;;5126785;27;20039;-50
2022/03/15 03:38:43;;;;;;;0.68;0.10;;;21.20;45.00;;;;;;5118245;27;20043;-50
2022/03/15 03:41:10;;;;;;;0.77;0.57;;;21.20;45.10;;;;;;5116531;27;20054;-49
2022/03/15 03:43:37;;;;;;;0.52;0.10;;;21.20;45.10;;;;;;5120374;27;20035;-51
2022/03/15 03:46:04;;;;;;;5.18;0.10;;;21.20;45.10;;;;;;5115353;27;20028;-49
2022/03/15 03:48:33;;;;;;;1.02;0.15;;;21.10;45.00;;;;;;5128002;27;20039;-50
2022/03/15 03:51:00;;;;;;;0.28;0.10;;;21.20;45.10;;;;;;5126078;27;20242;-51
2022/03/15 03:53:28;;;;;;;1.80;0.10;;;21.20;45.10;;;;;;5125182;28;20054;-48
2022/03/15 03:55:55;;;;;;;1.45;0.10;;;21.20;45.20;;;;;;5113502;27;20266;-50
2022/03/15 03:58:22;;;;;;;0.95;0.30;;;21.10;45.10;;;;;;5127224;27;20058;-51
2022/03/15 04:00:49;;;;;;;3.30;0.10;;;21.10;45.20;;;;;;5118537;27;20051;-49
2022/03/15 04:03:16;;;;;;;1.90;0.10;;;21.10;45.20;;;;;;5115770;27;20044;-51
2022/03/15 04:05:46;;;;;;;1.40;0.10;;;21.10;45.20;;;;;;5113170;27;20574;-51
2022/03/15 04:08:14;;;;;;;1.00;0.20;;;21.10;45.90;;;;;;5120590;27;20415;-50
2022/03/15 04:10:41;;;;;;;0.25;0.10;;;21.10;45.30;;;;;;5118108;27;20144;-48
2022/03/15 04:13:08;;;;;;;2.28;0.10;;;21.10;45.30;;;;;;5118942;27;20461;-52
2022/03/15 04:15:35;;;;;;;0.75;0.20;;;21.10;45.30;;;;;;5123982;27;20060;-48
2022/03/15 04:18:03;;;;;;;0.43;0.10;;;21.00;45.30;;;;;;5120193;27;20494;-48
2022/03/15 04:20:32;;;;;;;0.50;0.10;;;21.00;45.30;;;;;;5110578;28;20476;-49
2022/03/15 04:23:00;;;;;;;1.85;0.10;;;21.10;45.50;;;;;;5117926;27;20094;-49
2022/03/15 04:25:28;;;;;;;1.73;0.10;;;21.10;45.50;;;;;;5125512;27;20108;-47
2022/03/15 04:28:00;;;;;;;0.85;0.10;;;21.10;45.50;;;;;;5119486;27;20043;-52
2022/03/15 04:30:27;;;;;;;0.20;0.10;;;21.00;45.50;;;;;;5119016;27;20511;-50
2022/03/15 04:32:54;;;;;;;1.15;0.10;;;21.00;45.50;;;;;;5118653;27;20450;-50
2022/03/15 04:35:21;;;;;;;0.38;0.20;;;21.00;45.50;;;;;;5116126;27;20586;-47
2022/03/15 04:37:51;;;;;;;0.88;0.40;;;21.00;45.60;;;;;;5113246;27;20518;-47
2022/03/15 04:40:19;;;;;;;4.15;0.43;;;21.00;45.60;;;;;;5123697;27;20123;-48
2022/03/15 04:42:48;;;;;;;0.43;0.20;;;21.00;45.70;;;;;;5117280;27;20039;-47
2022/03/15 04:45:15;;;;;;;1.95;0.10;;;21.00;45.70;;;;;;5118502;27;20134;-47
2022/03/15 04:47:43;;;;;;;0.70;0.35;;;21.00;45.70;;;;;;5114059;27;20042;-51
2022/03/15 04:50:11;;;;;;;1.17;0.10;;;21.00;45.70;;;;;;5119951;27;20078;-51
2022/03/15 04:52:38;;;;;;;0.10;0.10;;;21.00;45.80;;;;;;5129486;27;20092;-50
2022/03/15 04:55:07;;;;;;;0.22;0.10;;;21.00;45.80;;;;;;5123053;27;20067;-49
2022/03/15 04:57:35;;;;;;;0.52;0.10;;;21.00;45.80;;;;;;5126354;27;20031;-47
2022/03/15 05:00:04;;;;;;;0.10;0.10;;;21.00;45.80;;;;;;5122825;27;20043;-48
2022/03/15 05:02:31;;;;;;;0.50;0.10;;;21.00;45.90;;;;;;5113585;27;20047;-47
2022/03/15 05:05:06;;;;;;;1.98;0.20;;;21.00;45.90;;;;;;5121030;27;20628;-50
2022/03/15 05:07:34;;;;;;;0.40;0.10;;;21.00;45.90;;;;;;5129458;27;20177;-49
2022/03/15 05:12:43;;;;;;;0.10;0.10;;;21.00;45.90;;;;;;5060132;28;20044;-47
2022/03/15 05:15:11;;;;;;;0.20;0.10;;;21.00;46.00;;;;;;5059369;28;20491;-47
2022/03/15 05:17:38;;;;;;;0.93;0.10;;;20.90;45.90;;;;;;5063858;28;20044;-48
2022/03/15 05:20:06;;;;;;;0.73;0.10;;;20.90;46.00;;;;;;5053737;28;20432;-47
2022/03/15 05:22:33;;;;;;;0.10;0.10;;;20.90;46.00;;;;;;5069273;28;20056;-49
2022/03/15 05:25:00;;;;;;;0.17;0.10;;;21.00;46.10;;;;;;5056109;28;20045;-51
2022/03/15 05:27:27;;;;;;;0.93;0.10;;;20.90;46.10;;;;;;5064191;28;20036;-52
2022/03/15 05:29:56;;;;;;;0.30;0.30;;;20.90;46.10;;;;;;5054886;28;20438;-47
2022/03/15 05:32:23;;;;;;;0.98;0.13;;;20.90;46.20;;;;;;5057716;28;20220;-49
2022/03/15 05:34:50;;;;;;;0.20;0.10;;;20.90;46.20;;;;;;5062298;28;20526;-50
2022/03/15 05:37:17;;;;;;;0.10;0.10;;;20.90;46.20;;;;;;5055761;28;20047;-47
2022/03/15 05:39:44;;;;;;;3.25;0.10;;;20.90;46.20;;;;;;5065476;28;20059;-48
2022/03/15 05:42:12;;;;;;;0.20;0.10;;;20.90;46.30;;;;;;5057140;28;20060;-48
2022/03/15 05:44:39;;;;;;;0.35;0.10;;;20.90;46.30;;;;;;5032659;28;20534;-48
2022/03/15 05:47:08;;;;;;;0.10;0.10;;;20.90;46.30;;;;;;5052655;28;20045;-51
2022/03/15 05:49:35;;;;;;;1.27;0.10;;;20.90;46.40;;;;;;5082832;28;20064;-50
2022/03/15 05:52:03;;;;;;;0.17;0.17;;;20.90;46.40;;;;;;5121512;27;20042;-48
2022/03/15 05:54:30;;;;;;;0.52;0.20;;;20.90;46.40;;;;;;5125552;27;20189;-48
2022/03/15 05:56:57;;;;;;;0.82;0.10;;;20.90;46.40;;;;;;5123397;27;20571;-48
2022/03/15 05:59:24;;;;;;;1.15;0.55;;;20.90;46.40;;;;;;5111348;27;20043;-47
2022/03/15 06:01:51;;;;;;;0.20;0.10;;;20.90;46.60;;;;;;5121399;27;20067;-50
2022/03/15 06:04:25;;;;;;;1.55;0.10;;;20.90;46.50;;;;;;5121700;27;20135;-50
2022/03/15 06:06:55;;;;;;;0.68;0.40;;;20.90;46.60;;;;;;5122299;27;20035;-48
2022/03/15 06:09:23;;;;;;;1.10;0.10;;;20.90;46.60;;;;;;5124843;27;20042;-52
2022/03/15 06:11:50;;;;;;;0.70;0.30;;;20.90;46.70;;;;;;5126117;27;20035;-47
2022/03/15 06:14:17;;;;;;;0.10;0.10;;;20.90;46.70;;;;;;5118818;27;20047;-48
2022/03/15 06:16:44;;;;;;;0.85;0.40;;;20.90;46.70;;;;;;5129348;27;20475;-49
2022/03/15 06:19:11;;;;;;;0.10;0.10;;;20.90;46.80;;;;;;5117351;27;20049;-49
2022/03/15 06:21:40;;;;;;;2.60;0.10;;;20.90;46.80;;;;;;5126132;27;20090;-48
2022/03/15 06:24:07;;;;;;;0.90;0.10;;;20.90;46.80;;;;;;5121748;27;20147;-54
2022/03/15 06:26:35;;;;;;;0.35;0.20;;;20.90;46.80;;;;;;5112488;27;20432;-51
2022/03/15 06:29:02;;;;;;;0.85;0.10;;;20.90;46.80;;;;;;5121172;27;20391;-50
2022/03/15 06:31:30;;;;;;;0.70;0.20;;;20.90;46.90;;;;;;5129190;27;20119;-49
2022/03/15 06:33:58;;;;;;;4.50;0.13;;;20.90;46.90;;;;;;5120063;27;20048;-49
2022/03/15 06:36:25;;;;;;;0.57;0.20;;;20.90;46.90;;;;;;5119676;27;20127;-50
2022/03/15 06:38:53;;;;;;;2.05;0.10;;;20.90;47.00;;;;;;5114801;27;20050;-50
2022/03/15 06:41:21;;;;;;;1.00;0.10;;;20.90;47.00;;;;;;5127695;27;20039;-51
2022/03/15 06:43:48;;;;;;;2.58;0.10;;;20.90;47.00;;;;;;5127974;27;20038;-53
2022/03/15 06:46:15;;;;;;;0.20;0.20;;;20.90;47.00;;;;;;5117551;27;20539;-50
2022/03/15 06:48:43;;;;;;;0.45;0.13;;;20.90;47.00;;;;;;5131824;27;20038;-48
2022/03/15 06:51:11;;;;;;;0.10;0.10;;;20.90;47.10;;;;;;5119714;27;20043;-51
2022/03/15 06:53:38;;;;;;;2.05;0.05;;;20.90;47.10;;;;;;5125979;27;20038;-52
2022/03/15 06:56:08;;;;;;;1.55;0.20;;;20.90;47.10;;;;;;5123977;27;20062;-48
2022/03/15 06:58:36;;;;;;;0.35;0.10;;;20.90;47.20;;;;;;5112373;27;20054;-49
2022/03/15 07:01:03;;;;;;;3.38;0.30;;;20.90;47.20;;;;;;5119079;27;20035;-50
2022/03/15 07:03:30;;;;;;;0.85;0.40;;;20.90;47.20;;;;;;5126591;27;20035;-50
2022/03/15 07:05:57;;;;;;;0.90;0.10;;;20.90;47.20;;;;;;5118176;27;20034;-49
2022/03/15 07:08:24;;;;;;;0.10;0.10;;;20.90;47.20;;;;;;5111222;27;20071;-52
2022/03/15 07:10:53;;;;;;;0.20;0.10;;;20.90;47.20;;;;;;5122484;27;20039;-49
2022/03/15 07:13:21;;;;;;;0.60;0.10;;;20.90;47.20;;;;;;5123749;27;20063;-54
2022/03/15 07:15:49;;;;;;;0.20;0.10;;;20.90;47.20;;;;;;5113052;27;20145;-50
2022/03/15 07:18:18;;;;;;;0.20;0.10;;;20.90;47.20;;;;;;5106940;27;20032;-50
2022/03/15 07:20:45;;;;;;;0.47;0.13;;;20.90;47.20;;;;;;5116744;27;20046;-50
2022/03/15 07:23:13;;;;;;;0.73;0.30;;;20.90;47.30;;;;;;5120353;27;20067;-49
2022/03/15 07:25:40;;;;;;;0.30;0.10;;;20.90;47.30;;;;;;5118657;27;20046;-49
2022/03/15 07:28:07;;;;;;;1.30;0.20;;;20.90;47.30;;;;;;5118384;27;20510;-49
2022/03/15 07:30:36;;;;;;;0.43;0.20;;;20.90;47.40;;;;;;5123161;27;20039;-49
2022/03/15 07:33:03;;;;;;;0.52;0.20;;;20.90;47.40;;;;;;5120226;27;20039;-52
2022/03/15 07:35:30;;;;;;;0.40;0.40;;;20.90;47.40;;;;;;5112197;27;20518;-49
2022/03/15 07:37:59;;;;;;;3.92;0.40;;;20.90;47.40;;;;;;5116509;27;20043;-48
2022/03/15 07:40:27;;;;;;;0.40;0.25;;;20.90;47.40;;;;;;5129488;27;20031;-49
2022/03/15 07:42:54;;;;;;;0.10;0.10;;;20.90;47.40;;;;;;5120072;27;20085;-50
2022/03/15 07:45:21;;;;;;;0.10;0.10;;;20.90;47.60;;;;;;5124627;27;20031;-48
2022/03/15 07:47:50;;;;;;;0.63;0.10;;;20.90;47.60;;;;;;5124063;28;20046;-48
2022/03/15 07:50:17;;;;;;;0.20;0.10;;;21.00;47.70;;;;;;5121018;27;21050;-48
2022/03/15 07:52:46;;;;;;;1.27;0.10;;;21.00;47.70;;;;;;5122428;27;20079;-50
2022/03/15 07:55:13;;;;;;;6.13;0.57;;;21.00;47.70;;;;;;5124632;27;20031;-59
2022/03/15 07:57:40;;;;;;;1.35;0.20;;;21.10;47.80;;;;;;5124051;27;20368;-53
2022/03/15 08:00:09;;;;;;;1.52;0.40;;;21.10;48.20;;;;;;5124265;27;20043;-53
2022/03/15 08:02:43;;;;;;;0.68;0.25;;;21.10;48.40;;;;;;5119374;27;20047;-50
2022/03/15 08:05:11;;;;;;;2.65;0.60;;;21.20;48.60;;;;;;5123106;27;20483;-50
2022/03/15 08:07:39;;;;;;;1.30;0.25;;;21.30;48.50;;;;;;5127675;27;20533;-55
2022/03/15 08:10:07;;;;;;;0.25;0.10;;;21.50;48.40;;;;;;5123886;27;20046;-54
2022/03/15 08:12:35;;;;;;;0.30;0.20;;;21.60;48.10;;;;;;5130228;27;20604;-55
2022/03/15 08:15:02;;;;;;;0.85;0.20;;;21.70;47.90;;;;;;5119715;27;20547;-53
2022/03/15 08:17:29;;;;;;;5.57;0.28;;;21.80;47.60;;;;;;5116186;28;20403;-49
2022/03/15 08:19:57;;;;;;;0.65;0.25;;;22.00;47.40;;;;;;5125539;27;20103;-50
2022/03/15 08:22:26;;;;;;;2.22;0.30;;;22.10;47.10;;;;;;5114309;28;20039;-49
2022/03/15 08:24:55;;;;;;;0.98;0.50;;;22.20;46.80;;;;;;5123732;27;20067;-52
2022/03/15 08:27:22;;;;;;;0.20;0.20;;;22.40;46.60;;;;;;5130358;27;20034;-48
2022/03/15 08:29:49;;;;;;;0.32;0.20;;;22.50;46.40;;;;;;5122453;27;20050;-54
2022/03/15 08:32:16;;;;;;;0.80;0.30;;;22.60;46.10;;;;;;5126837;27;20050;-55
2022/03/15 08:34:44;;;;;;;0.60;0.60;;;22.70;45.90;;;;;;5125352;27;20084;-53
2022/03/15 08:37:12;;;;;;;2.28;0.65;;;22.80;45.60;;;;;;5131737;27;20060;-52
2022/03/15 08:39:41;;;;;;;0.75;0.30;;;22.90;45.40;;;;;;5127732;27;20035;-50
2022/03/15 08:42:08;;;;;;;1.10;0.40;;;23.00;45.20;;;;;;5125871;27;20031;-54
2022/03/15 08:44:35;;;;;;;1.50;0.35;;;23.10;44.90;;;;;;5127828;27;20138;-53
2022/03/15 08:47:03;;;;;;;3.75;0.20;;;23.20;44.70;;;;;;5127853;27;20043;-49
2022/03/15 08:49:30;;;;;;;0.75;0.30;;;23.30;44.50;;;;;;5130591;27;20039;-54
2022/03/15 08:51:58;;;;;;;0.20;0.20;;;23.40;44.40;;;;;;5125121;27;20119;-51
2022/03/15 08:54:28;;;;;;;0.88;0.30;;;23.50;44.30;;;;;;5110012;27;20049;-54
2022/03/15 08:56:56;;;;;;;0.47;0.32;;;23.50;44.10;;;;;;5116624;27;20046;-52
2022/03/15 08:59:25;;;;;;;0.73;0.63;;;23.60;44.00;;;;;;5115695;27;20039;-61
2022/03/15 09:01:52;;;;;;;1.02;0.10;;;23.60;43.90;;;;;;5123930;27;20104;-57
2022/03/15 09:04:19;;;;;;;3.50;0.20;;;23.60;43.70;;;;;;5130833;27;20055;-51
2022/03/15 09:06:48;;;;;;;0.40;0.25;;;23.70;43.60;;;;;;5122943;27;20043;-54
2022/03/15 09:09:18;;;;;;;1.38;0.20;;;23.80;43.60;;;;;;5128095;27;20433;-65
2022/03/15 09:11:47;;;;;;;0.50;0.28;;;23.80;43.40;;;;;;5122679;27;20047;-63
2022/03/15 09:14:15;;;;;;;0.65;0.30;;;23.80;43.30;;;;;;5124987;27;20043;-63
2022/03/15 09:16:43;;;;;;;0.40;0.32;;;23.90;43.20;;;;;;5122349;27;20572;-62
2022/03/15 09:19:11;;;;;;;1.30;0.10;;;24.00;43.20;;;;;;5127967;27;20043;-62
2022/03/15 09:21:38;;;;;;;0.45;0.20;;;24.00;43.10;;;;;;5133426;27;20058;-68
2022/03/15 09:24:06;;;;;;;0.60;0.20;;;24.10;43.00;;;;;;5125685;27;20038;-72
2022/03/15 09:26:34;;;;;;;0.30;0.20;;;24.10;42.90;;;;;;5121110;27;20562;-69
2022/03/15 09:29:01;;;;;;;0.20;0.20;;;24.10;42.80;;;;;;5105635;27;20126;-57
2022/03/15 09:31:29;;;;;;;1.27;0.55;;;24.20;42.80;;;;;;5132153;27;20032;-58
2022/03/15 09:33:56;;;;;;;2.70;1.45;;;24.20;42.70;;;;;;5125814;27;20039;-55
2022/03/15 09:36:24;;;;;;;0.60;0.25;;;24.20;42.70;;;;;;5121894;27;20426;-58
2022/03/15 09:38:51;;;;;;;0.30;0.20;;;24.20;42.80;;;;;;5125076;27;20071;-55
2022/03/15 09:41:18;;;;;;;2.65;0.20;;;24.30;42.70;;;;;;5133816;27;20047;-57
2022/03/15 09:43:47;;;;;;;0.20;0.10;;;24.30;42.70;;;;;;5127853;27;20043;-55
2022/03/15 09:46:15;;;;;;;4.70;0.55;;;24.30;42.60;;;;;;5122797;27;20515;-57
2022/03/15 09:48:45;;;;;;;9.65;0.52;;;24.30;42.50;;;;;;5126222;27;20043;-58
2022/03/15 09:51:14;;;;;;;0.70;0.43;;;24.30;42.30;;;;;;5126425;27;20455;-57
2022/03/15 09:53:43;;;;;;;1.38;0.60;;;24.40;42.40;;;;;;5117703;27;20067;-53
2022/03/15 09:56:14;;;;;;;0.85;0.30;;;24.50;42.30;;;;;;5130868;27;20062;-55
2022/03/15 09:58:42;;;;;;;0.30;0.30;;;24.50;42.20;;;;;;5123543;27;20057;-64
2022/03/15 10:01:16;;;;;;;5.93;0.70;;;24.60;42.20;;;;;;5122472;27;20039;-56
2022/03/15 10:03:45;;;;;;;2.65;0.30;;;24.60;42.20;;;;;;5124708;27;20122;-54
2022/03/15 10:06:13;;;;;;;5.10;0.50;;;24.60;42.20;;;;;;5107620;27;20039;-59
2022/03/15 10:08:40;;;;;;;0.30;0.30;;;24.70;42.10;;;;;;5125386;27;20035;-53
2022/03/15 10:11:08;;;;;;;2.15;0.20;;;24.70;42.00;;;;;;5126821;27;20038;-53
2022/03/15 10:13:35;;;;;;;0.90;0.38;;;24.80;41.90;;;;;;5128457;27;20114;-61
2022/03/15 10:16:03;;;;;;;0.40;0.40;;;24.80;41.80;;;;;;5128839;27;20558;-58
2022/03/15 10:18:31;;;;;;;0.13;0.13;;;24.80;41.70;;;;;;5128258;27;20533;-57
2022/03/15 10:21:03;;;;;;;1.05;0.40;;;24.80;41.70;;;;;;5115550;27;20038;-58
2022/03/15 10:23:37;;;;;;;0.75;0.52;;;24.80;41.70;;;;;;5114753;27;20050;-56
2022/03/15 10:26:06;;;;;;;2.40;0.63;;;24.60;41.70;;;;;;5123425;27;20041;-57
2022/03/15 10:28:36;;;;;;;2.42;0.20;;;24.50;41.80;;;;;;5120690;27;20052;-60
2022/03/15 10:31:06;;;;;;;0.35;0.20;;;24.50;42.00;;;;;;5123426;27;20508;-60
2022/03/15 10:33:36;;;;;;;2.83;0.30;;;24.40;42.20;;;;;;5111511;27;20414;-60
2022/03/15 10:36:16;;;;;;;2.45;0.20;;;24.30;42.30;;;;;;5119868;27;20039;-60
2022/03/15 10:38:46;;;;;;;2.05;0.13;;;24.20;42.40;;;;;;5123293;27;20127;-59
2022/03/15 10:41:15;;;;;;;0.57;0.10;;;24.10;42.60;;;;;;5126971;27;20048;-60
2022/03/15 10:43:42;;;;;;;2.65;0.30;;;24.00;42.60;;;;;;5126052;27;20384;-59
2022/03/15 10:46:12;;;;;;;1.30;0.40;;;23.90;42.80;;;;;;5125569;27;20465;-59
2022/03/15 10:48:39;;;;;;;1.42;0.40;;;23.90;42.90;;;;;;5116781;27;20076;-59
2022/03/15 10:51:14;;;;;;;7.10;0.30;;;23.80;43.00;;;;;;5114764;27;20046;-54
2022/03/15 10:53:43;;;;;;;5.97;0.57;;;23.80;43.70;;;;;;5118653;27;20051;-53
2022/03/15 10:56:16;;;;;;;6.25;0.70;;;23.80;45.00;;;;;;5119456;27;20040;-47
2022/03/15 10:58:48;;;;;;;8.77;0.95;;;23.70;45.80;;;;;;5124660;27;20072;-46
2022/03/15 11:01:17;;;;;;;11.18;0.82;;;23.70;47.30;;;;;;5116979;27;20048;-45
2022/03/15 11:03:57;;;;;;;13.02;1.10;;;23.60;48.10;;;;;;5126669;27;20570;-47
2022/03/15 11:06:38;;;;;;;2.25;0.40;;;23.60;48.80;;;;;;5118149;27;20035;-45
2022/03/15 11:09:19;;;;;;;3.40;0.40;;;23.50;49.30;;;;;;5112752;27;20491;-45
2022/03/15 11:11:48;;;;;;;6.82;0.40;;;23.50;49.60;;;;;;5116190;27;20039;-47
2022/03/15 11:14:15;;;;;;;6.95;1.05;;;23.30;49.70;;;;;;5120595;27;20073;-47
2022/03/15 11:16:46;;;;;;;2.72;0.60;;;23.30;49.90;;;;;;5119903;27;20051;-46
2022/03/15 11:19:15;;;;;;;3.88;0.60;;;23.30;50.10;;;;;;5118298;27;20035;-46
2022/03/15 11:21:46;;;;;;;5.68;0.30;;;23.20;50.30;;;;;;5127002;27;20050;-46
2022/03/15 11:24:19;;;;;;;3.70;0.47;;;23.20;50.40;;;;;;5120132;27;20118;-45
2022/03/15 11:26:46;;;;;;;2.83;0.40;;;23.20;50.50;;;;;;5112980;27;20133;-46
2022/03/15 11:29:19;;;;;;;5.65;0.40;;;23.10;50.60;;;;;;5118471;27;20518;-46
2022/03/15 11:31:47;;;;;;;7.00;0.60;;;23.10;50.60;;;;;;5126839;27;20127;-47
2022/03/15 11:34:15;;;;;;;2.90;0.63;;;23.00;50.50;;;;;;5121376;27;20044;-46
2022/03/15 11:36:46;;;;;;;3.80;0.30;;;23.00;50.40;;;;;;5121583;27;20102;-48
2022/03/15 11:39:13;;;;;;;6.70;0.50;;;22.90;50.40;;;;;;5118467;27;20062;-46
2022/03/15 11:41:40;;;;;;;3.95;0.40;;;22.90;50.40;;;;;;5122936;27;20053;-46
2022/03/15 11:44:14;;;;;;;5.13;0.93;;;22.90;50.50;;;;;;5115184;27;20122;-46
2022/03/15 11:46:46;;;;;;;3.33;0.50;;;22.80;50.50;;;;;;5119643;27;20096;-47
2022/03/15 11:49:34;;;;;;;1.60;0.60;;;22.80;50.50;;;;;;5118796;27;20039;-45
2022/03/15 11:52:17;;;;;;;1.58;0.30;;;22.80;50.50;;;;;;5117732;27;20052;-46
2022/03/15 11:54:51;;;;;;;2.83;0.20;;;22.80;50.50;;;;;;5125493;27;20047;-45
2022/03/15 11:57:31;;;;;;;2.35;0.65;;;22.70;50.40;;;;;;5117778;27;20457;-46
2022/03/15 11:59:58;;;;;;;1.55;0.30;;;22.70;50.50;;;;;;5110556;28;20376;-45
2022/03/15 12:02:27;;;;;;;2.08;0.40;;;22.60;50.30;;;;;;5118441;27;20051;-46
2022/03/15 12:04:56;;;;;;;2.38;0.35;;;22.60;50.40;;;;;;5122729;27;20040;-47
2022/03/15 12:07:45;;;;;;;0.85;0.30;;;22.60;50.30;;;;;;5123113;27;20047;-46
2022/03/15 12:10:21;;;;;;;0.30;0.13;;;22.60;50.30;;;;;;5121782;27;20863;-45
2022/03/15 12:12:59;;;;;;;1.55;0.50;;;22.60;50.30;;;;;;5132065;27;20038;-45
2022/03/15 12:15:35;;;;;;;0.40;0.20;;;22.60;50.70;;;;;;5123346;27;20430;-46
2022/03/15 12:18:09;;;;;;;2.30;0.43;;;22.50;50.00;;;;;;5115744;27;20631;-46
2022/03/15 12:20:46;;;;;;;0.90;0.90;;;22.50;49.90;;;;;;5119177;27;20126;-45
2022/03/15 12:23:22;;;;;;;0.73;0.20;;;22.50;49.90;;;;;;5124526;27;20043;-45
2022/03/15 12:25:54;;;;;;;1.80;0.30;;;22.50;49.90;;;;;;5122201;27;20052;-46
2022/03/15 12:28:30;;;;;;;0.55;0.20;;;22.50;49.80;;;;;;5126360;27;20039;-45
2022/03/15 12:31:05;;;;;;;1.08;0.22;;;22.50;49.80;;;;;;5131171;27;20051;-46
2022/03/15 12:33:34;;;;;;;0.60;0.20;;;22.50;49.80;;;;;;5108136;27;20061;-45
2022/03/15 12:36:04;;;;;;;0.95;0.30;;;22.40;49.80;;;;;;5103666;27;20075;-45
2022/03/15 12:38:40;;;;;;;0.57;0.38;;;22.40;49.80;;;;;;5121592;27;20062;-47
2022/03/15 12:41:08;;;;;;;0.30;0.30;;;22.40;49.70;;;;;;5113637;27;20036;-46
2022/03/15 12:43:36;;;;;;;1.95;0.20;;;22.40;49.70;;;;;;5118497;27;20146;-45
2022/03/15 12:46:06;;;;;;;1.55;0.30;;;22.40;49.60;;;;;;5128166;27;20625;-44
2022/03/15 12:48:35;;;;;;;2.22;0.47;;;22.40;49.60;;;;;;5120907;27;20503;-45
2022/03/15 12:51:16;;;;;;;1.05;0.63;;;22.40;49.50;;;;;;5101954;27;20039;-44
2022/03/15 12:53:48;;;;;;;1.83;0.28;;;22.30;49.40;;;;;;5118369;27;20059;-44
2022/03/15 12:56:16;;;;;;;0.28;0.28;;;22.30;49.40;;;;;;5122132;27;20052;-45
2022/03/15 12:58:44;;;;;;;1.13;0.17;;;22.30;49.30;;;;;;5122243;27;20039;-45